Terminal Aerodrome Forecast
Issued by NWS Riverton, WY

Home | Current Version | Previous Version | Text Only | Print | Product List | Glossary On
Versions: 1 2 3 4 5 6 7 8 9 10 11 12 13 14 15
063
FTUS45 KRIW 240520
TAFRIW
TAF
KRIW 240520Z 2406/2506 VRB06KT P6SM SCT200
     FM242100 VRB07G18KT P6SM VCTS SCT080CB BKN100
     FM250200 VRB08KT P6SM VCSH SCT090 SCT150
     FM250500 VRB06KT P6SM SCT150=

USA.gov is the U.S. government's official web portal to all federal, state and local government web resources and services.